sensor_id;sensor_type;location;lat;lon;timestamp;P1;durP1;ratioP1;P2;durP2;ratioP2
20230;SDS011;10274;49.022;9.338;2024-02-28T00:00:40;2.33;;;2.10;;
20230;SDS011;10274;49.022;9.338;2024-02-28T00:03:07;3.50;;;2.37;;
20230;SDS011;10274;49.022;9.338;2024-02-28T00:05:35;3.87;;;2.33;;
20230;SDS011;10274;49.022;9.338;2024-02-28T00:08:02;2.30;;;2.10;;
20230;SDS011;10274;49.022;9.338;2024-02-28T00:10:29;3.77;;;2.47;;
20230;SDS011;10274;49.022;9.338;2024-02-28T00:12:55;2.47;;;2.23;;
20230;SDS011;10274;49.022;9.338;2024-02-28T00:15:22;3.20;;;2.90;;
20230;SDS011;10274;49.022;9.338;2024-02-28T00:17:51;3.40;;;3.10;;
20230;SDS011;10274;49.022;9.338;2024-02-28T00:20:18;3.27;;;2.77;;
20230;SDS011;10274;49.022;9.338;2024-02-28T00:22:46;3.43;;;2.00;;
20230;SDS011;10274;49.022;9.338;2024-02-28T00:25:13;3.33;;;1.73;;
20230;SDS011;10274;49.022;9.338;2024-02-28T00:27:40;3.70;;;2.97;;
20230;SDS011;10274;49.022;9.338;2024-02-28T00:30:07;3.20;;;2.33;;
20230;SDS011;10274;49.022;9.338;2024-02-28T00:32:35;3.20;;;2.57;;
20230;SDS011;10274;49.022;9.338;2024-02-28T00:35:02;5.10;;;2.47;;
20230;SDS011;10274;49.022;9.338;2024-02-28T00:37:29;3.67;;;3.37;;
20230;SDS011;10274;49.022;9.338;2024-02-28T00:39:57;3.97;;;3.07;;
20230;SDS011;10274;49.022;9.338;2024-02-28T00:42:23;3.20;;;2.43;;
20230;SDS011;10274;49.022;9.338;2024-02-28T00:44:50;2.90;;;2.33;;
20230;SDS011;10274;49.022;9.338;2024-02-28T00:47:17;3.60;;;2.60;;
20230;SDS011;10274;49.022;9.338;2024-02-28T00:49:43;3.27;;;2.97;;
20230;SDS011;10274;49.022;9.338;2024-02-28T00:52:10;3.40;;;1.97;;
20230;SDS011;10274;49.022;9.338;2024-02-28T00:54:37;3.63;;;2.40;;
20230;SDS011;10274;49.022;9.338;2024-02-28T00:57:05;3.70;;;2.03;;
20230;SDS011;10274;49.022;9.338;2024-02-28T00:59:32;3.83;;;2.60;;
20230;SDS011;10274;49.022;9.338;2024-02-28T01:01:58;3.27;;;2.60;;
20230;SDS011;10274;49.022;9.338;2024-02-28T01:04:25;2.30;;;2.07;;
20230;SDS011;10274;49.022;9.338;2024-02-28T01:06:51;1.77;;;1.50;;
20230;SDS011;10274;49.022;9.338;2024-02-28T01:09:18;3.57;;;2.53;;
20230;SDS011;10274;49.022;9.338;2024-02-28T01:11:45;3.93;;;2.87;;
20230;SDS011;10274;49.022;9.338;2024-02-28T01:14:13;3.20;;;2.30;;
20230;SDS011;10274;49.022;9.338;2024-02-28T01:16:39;3.37;;;3.07;;
20230;SDS011;10274;49.022;9.338;2024-02-28T01:19:06;4.00;;;2.23;;
20230;SDS011;10274;49.022;9.338;2024-02-28T01:21:33;3.47;;;2.80;;
20230;SDS011;10274;49.022;9.338;2024-02-28T01:23:59;3.93;;;3.13;;
20230;SDS011;10274;49.022;9.338;2024-02-28T01:26:26;4.53;;;2.47;;
20230;SDS011;10274;49.022;9.338;2024-02-28T01:28:53;3.03;;;2.50;;
20230;SDS011;10274;49.022;9.338;2024-02-28T01:31:21;5.63;;;3.40;;
20230;SDS011;10274;49.022;9.338;2024-02-28T01:33:47;4.50;;;3.40;;
20230;SDS011;10274;49.022;9.338;2024-02-28T01:36:13;4.03;;;3.20;;
20230;SDS011;10274;49.022;9.338;2024-02-28T01:38:40;6.17;;;3.27;;
20230;SDS011;10274;49.022;9.338;2024-02-28T01:41:06;3.87;;;2.20;;
20230;SDS011;10274;49.022;9.338;2024-02-28T01:43:33;2.50;;;1.97;;
20230;SDS011;10274;49.022;9.338;2024-02-28T01:46:00;3.80;;;2.60;;
20230;SDS011;10274;49.022;9.338;2024-02-28T01:48:31;3.87;;;2.70;;
20230;SDS011;10274;49.022;9.338;2024-02-28T01:50:58;3.00;;;2.03;;
20230;SDS011;10274;49.022;9.338;2024-02-28T01:53:25;4.80;;;2.87;;
20230;SDS011;10274;49.022;9.338;2024-02-28T01:55:52;5.73;;;3.00;;
20230;SDS011;10274;49.022;9.338;2024-02-28T01:58:20;2.20;;;2.00;;
20230;SDS011;10274;49.022;9.338;2024-02-28T02:00:47;6.17;;;2.87;;
20230;SDS011;10274;49.022;9.338;2024-02-28T02:03:15;4.70;;;3.33;;
20230;SDS011;10274;49.022;9.338;2024-02-28T02:05:43;3.80;;;3.07;;
20230;SDS011;10274;49.022;9.338;2024-02-28T02:08:10;4.57;;;3.07;;
20230;SDS011;10274;49.022;9.338;2024-02-28T02:10:37;6.10;;;3.03;;
20230;SDS011;10274;49.022;9.338;2024-02-28T02:13:04;3.83;;;2.87;;
20230;SDS011;10274;49.022;9.338;2024-02-28T02:15:31;4.57;;;2.93;;
20230;SDS011;10274;49.022;9.338;2024-02-28T02:17:58;4.43;;;2.77;;
20230;SDS011;10274;49.022;9.338;2024-02-28T02:20:25;3.53;;;2.40;;
20230;SDS011;10274;49.022;9.338;2024-02-28T02:22:53;4.67;;;2.90;;
20230;SDS011;10274;49.022;9.338;2024-02-28T02:25:20;3.27;;;2.67;;
20230;SDS011;10274;49.022;9.338;2024-02-28T02:27:47;3.13;;;2.63;;
20230;SDS011;10274;49.022;9.338;2024-02-28T02:30:14;6.30;;;3.97;;
20230;SDS011;10274;49.022;9.338;2024-02-28T02:32:40;4.20;;;2.70;;
20230;SDS011;10274;49.022;9.338;2024-02-28T02:35:07;4.83;;;2.97;;
20230;SDS011;10274;49.022;9.338;2024-02-28T02:37:34;3.07;;;2.10;;
20230;SDS011;10274;49.022;9.338;2024-02-28T02:40:03;4.20;;;2.43;;
20230;SDS011;10274;49.022;9.338;2024-02-28T02:42:30;3.77;;;2.83;;
20230;SDS011;10274;49.022;9.338;2024-02-28T02:44:56;5.17;;;3.07;;
20230;SDS011;10274;49.022;9.338;2024-02-28T02:47:23;2.90;;;2.40;;
20230;SDS011;10274;49.022;9.338;2024-02-28T02:49:49;3.47;;;2.63;;
20230;SDS011;10274;49.022;9.338;2024-02-28T02:52:15;5.30;;;3.07;;
20230;SDS011;10274;49.022;9.338;2024-02-28T02:54:42;4.33;;;2.77;;
20230;SDS011;10274;49.022;9.338;2024-02-28T02:57:10;3.47;;;2.90;;
20230;SDS011;10274;49.022;9.338;2024-02-28T02:59:37;4.30;;;3.07;;
20230;SDS011;10274;49.022;9.338;2024-02-28T03:02:04;4.73;;;3.57;;
20230;SDS011;10274;49.022;9.338;2024-02-28T03:04:30;3.93;;;2.57;;
20230;SDS011;10274;49.022;9.338;2024-02-28T03:06:57;3.20;;;2.80;;
20230;SDS011;10274;49.022;9.338;2024-02-28T03:09:24;3.67;;;2.73;;
20230;SDS011;10274;49.022;9.338;2024-02-28T03:11:50;2.57;;;2.37;;
20230;SDS011;10274;49.022;9.338;2024-02-28T03:14:18;3.53;;;2.80;;
20230;SDS011;10274;49.022;9.338;2024-02-28T03:16:47;3.70;;;3.13;;
20230;SDS011;10274;49.022;9.338;2024-02-28T03:19:14;4.57;;;3.17;;
20230;SDS011;10274;49.022;9.338;2024-02-28T03:21:40;3.60;;;2.63;;
20230;SDS011;10274;49.022;9.338;2024-02-28T03:24:07;4.00;;;3.43;;
20230;SDS011;10274;49.022;9.338;2024-02-28T03:26:34;4.97;;;2.30;;
20230;SDS011;10274;49.022;9.338;2024-02-28T03:29:01;2.93;;;2.53;;
20230;SDS011;10274;49.022;9.338;2024-02-28T03:31:29;3.77;;;3.10;;
20230;SDS011;10274;49.022;9.338;2024-02-28T03:33:55;3.27;;;2.73;;
20230;SDS011;10274;49.022;9.338;2024-02-28T03:36:22;3.27;;;2.73;;
20230;SDS011;10274;49.022;9.338;2024-02-28T03:38:49;3.03;;;2.43;;
20230;SDS011;10274;49.022;9.338;2024-02-28T03:41:15;2.93;;;2.40;;
20230;SDS011;10274;49.022;9.338;2024-02-28T03:43:43;3.33;;;2.33;;
20230;SDS011;10274;49.022;9.338;2024-02-28T03:46:09;3.63;;;2.80;;
20230;SDS011;10274;49.022;9.338;2024-02-28T03:48:37;5.43;;;3.30;;
20230;SDS011;10274;49.022;9.338;2024-02-28T03:51:04;5.60;;;2.63;;
20230;SDS011;10274;49.022;9.338;2024-02-28T03:53:31;3.67;;;2.87;;
20230;SDS011;10274;49.022;9.338;2024-02-28T03:55:58;3.60;;;2.03;;
20230;SDS011;10274;49.022;9.338;2024-02-28T03:58:24;3.20;;;2.47;;
20230;SDS011;10274;49.022;9.338;2024-02-28T04:00:51;4.03;;;2.50;;
20230;SDS011;10274;49.022;9.338;2024-02-28T04:03:18;4.90;;;3.20;;
20230;SDS011;10274;49.022;9.338;2024-02-28T04:05:46;4.53;;;3.30;;
20230;SDS011;10274;49.022;9.338;2024-02-28T04:08:12;3.80;;;2.50;;
20230;SDS011;10274;49.022;9.338;2024-02-28T04:10:39;3.53;;;2.67;;
20230;SDS011;10274;49.022;9.338;2024-02-28T04:13:06;3.13;;;2.40;;
20230;SDS011;10274;49.022;9.338;2024-02-28T04:15:32;3.70;;;2.97;;
20230;SDS011;10274;49.022;9.338;2024-02-28T04:17:59;3.90;;;2.73;;
20230;SDS011;10274;49.022;9.338;2024-02-28T04:20:26;3.87;;;2.20;;
20230;SDS011;10274;49.022;9.338;2024-02-28T04:22:54;4.53;;;2.57;;
20230;SDS011;10274;49.022;9.338;2024-02-28T04:25:20;3.23;;;2.53;;
20230;SDS011;10274;49.022;9.338;2024-02-28T04:27:47;3.20;;;2.83;;
20230;SDS011;10274;49.022;9.338;2024-02-28T04:30:14;3.67;;;2.70;;
20230;SDS011;10274;49.022;9.338;2024-02-28T04:32:41;3.83;;;2.40;;
20230;SDS011;10274;49.022;9.338;2024-02-28T04:35:08;4.53;;;3.17;;
20230;SDS011;10274;49.022;9.338;2024-02-28T04:37:34;4.93;;;2.97;;
20230;SDS011;10274;49.022;9.338;2024-02-28T04:40:03;2.67;;;2.30;;
20230;SDS011;10274;49.022;9.338;2024-02-28T04:42:31;3.40;;;2.40;;
20230;SDS011;10274;49.022;9.338;2024-02-28T04:44:58;4.20;;;2.73;;
20230;SDS011;10274;49.022;9.338;2024-02-28T04:47:25;3.07;;;2.73;;
20230;SDS011;10274;49.022;9.338;2024-02-28T04:49:51;5.77;;;3.03;;
20230;SDS011;10274;49.022;9.338;2024-02-28T04:52:18;3.60;;;2.17;;
20230;SDS011;10274;49.022;9.338;2024-02-28T04:54:45;3.23;;;2.47;;
20230;SDS011;10274;49.022;9.338;2024-02-28T04:57:13;4.17;;;1.97;;
20230;SDS011;10274;49.022;9.338;2024-02-28T04:59:41;2.83;;;2.53;;
20230;SDS011;10274;49.022;9.338;2024-02-28T05:02:09;2.27;;;1.60;;
20230;SDS011;10274;49.022;9.338;2024-02-28T05:04:36;2.33;;;1.97;;
20230;SDS011;10274;49.022;9.338;2024-02-28T05:07:02;3.03;;;2.40;;
20230;SDS011;10274;49.022;9.338;2024-02-28T05:09:29;3.20;;;2.23;;
20230;SDS011;10274;49.022;9.338;2024-02-28T05:11:56;3.17;;;2.73;;
20230;SDS011;10274;49.022;9.338;2024-02-28T05:14:25;2.67;;;1.90;;
20230;SDS011;10274;49.022;9.338;2024-02-28T05:16:51;2.50;;;2.20;;
20230;SDS011;10274;49.022;9.338;2024-02-28T05:19:18;3.63;;;2.23;;
20230;SDS011;10274;49.022;9.338;2024-02-28T05:21:45;5.80;;;2.57;;
20230;SDS011;10274;49.022;9.338;2024-02-28T05:24:13;3.90;;;2.40;;
20230;SDS011;10274;49.022;9.338;2024-02-28T05:26:40;2.33;;;1.97;;
20230;SDS011;10274;49.022;9.338;2024-02-28T05:29:06;4.07;;;2.77;;
20230;SDS011;10274;49.022;9.338;2024-02-28T05:31:34;3.17;;;2.83;;
20230;SDS011;10274;49.022;9.338;2024-02-28T05:34:03;2.60;;;2.40;;
20230;SDS011;10274;49.022;9.338;2024-02-28T05:36:30;3.17;;;2.87;;
20230;SDS011;10274;49.022;9.338;2024-02-28T05:38:57;3.23;;;2.60;;
20230;SDS011;10274;49.022;9.338;2024-02-28T05:41:26;2.60;;;2.40;;
20230;SDS011;10274;49.022;9.338;2024-02-28T05:43:52;3.43;;;2.27;;
20230;SDS011;10274;49.022;9.338;2024-02-28T05:46:19;2.87;;;2.27;;
20230;SDS011;10274;49.022;9.338;2024-02-28T05:48:48;4.43;;;3.03;;
20230;SDS011;10274;49.022;9.338;2024-02-28T05:51:15;4.20;;;3.10;;
20230;SDS011;10274;49.022;9.338;2024-02-28T05:53:42;4.07;;;3.27;;
20230;SDS011;10274;49.022;9.338;2024-02-28T05:56:09;2.63;;;2.40;;
20230;SDS011;10274;49.022;9.338;2024-02-28T05:58:39;3.60;;;2.73;;
20230;SDS011;10274;49.022;9.338;2024-02-28T06:01:06;3.30;;;2.10;;
20230;SDS011;10274;49.022;9.338;2024-02-28T06:03:33;3.83;;;3.00;;
20230;SDS011;10274;49.022;9.338;2024-02-28T06:06:01;6.13;;;2.77;;
20230;SDS011;10274;49.022;9.338;2024-02-28T06:08:30;4.10;;;2.97;;
20230;SDS011;10274;49.022;9.338;2024-02-28T06:10:57;4.80;;;3.27;;
20230;SDS011;10274;49.022;9.338;2024-02-28T06:13:23;3.50;;;2.80;;
20230;SDS011;10274;49.022;9.338;2024-02-28T06:15:50;3.93;;;3.00;;
20230;SDS011;10274;49.022;9.338;2024-02-28T06:18:17;5.07;;;3.53;;
20230;SDS011;10274;49.022;9.338;2024-02-28T06:20:43;3.30;;;2.70;;
20230;SDS011;10274;49.022;9.338;2024-02-28T06:23:11;4.80;;;3.50;;
20230;SDS011;10274;49.022;9.338;2024-02-28T06:25:38;3.90;;;2.53;;
20230;SDS011;10274;49.022;9.338;2024-02-28T06:28:05;3.80;;;3.33;;
20230;SDS011;10274;49.022;9.338;2024-02-28T06:30:32;3.87;;;2.93;;
20230;SDS011;10274;49.022;9.338;2024-02-28T06:32:59;4.23;;;3.00;;
20230;SDS011;10274;49.022;9.338;2024-02-28T06:35:25;4.73;;;2.90;;
20230;SDS011;10274;49.022;9.338;2024-02-28T06:37:52;3.03;;;2.70;;
20230;SDS011;10274;49.022;9.338;2024-02-28T06:40:20;4.63;;;2.83;;
20230;SDS011;10274;49.022;9.338;2024-02-28T06:42:47;3.43;;;2.70;;
20230;SDS011;10274;49.022;9.338;2024-02-28T06:45:14;4.43;;;3.13;;
20230;SDS011;10274;49.022;9.338;2024-02-28T06:47:41;4.67;;;2.97;;
20230;SDS011;10274;49.022;9.338;2024-02-28T06:50:10;3.20;;;2.90;;
20230;SDS011;10274;49.022;9.338;2024-02-28T06:52:36;3.37;;;2.43;;
20230;SDS011;10274;49.022;9.338;2024-02-28T06:55:03;3.57;;;2.60;;
20230;SDS011;10274;49.022;9.338;2024-02-28T06:57:36;3.30;;;2.43;;
20230;SDS011;10274;49.022;9.338;2024-02-28T07:00:04;4.90;;;2.90;;
20230;SDS011;10274;49.022;9.338;2024-02-28T07:02:33;3.83;;;3.33;;
20230;SDS011;10274;49.022;9.338;2024-02-28T07:04:59;3.77;;;2.83;;
20230;SDS011;10274;49.022;9.338;2024-02-28T07:07:26;3.03;;;2.17;;
20230;SDS011;10274;49.022;9.338;2024-02-28T07:09:52;3.30;;;2.53;;
20230;SDS011;10274;49.022;9.338;2024-02-28T07:12:19;3.47;;;2.43;;
20230;SDS011;10274;49.022;9.338;2024-02-28T07:14:47;4.43;;;3.10;;
20230;SDS011;10274;49.022;9.338;2024-02-28T07:17:14;4.40;;;2.80;;
20230;SDS011;10274;49.022;9.338;2024-02-28T07:19:40;3.63;;;2.27;;
20230;SDS011;10274;49.022;9.338;2024-02-28T07:22:07;4.47;;;3.50;;
20230;SDS011;10274;49.022;9.338;2024-02-28T07:24:34;5.23;;;2.93;;
20230;SDS011;10274;49.022;9.338;2024-02-28T07:27:00;4.63;;;2.83;;
20230;SDS011;10274;49.022;9.338;2024-02-28T07:29:27;4.20;;;2.87;;
20230;SDS011;10274;49.022;9.338;2024-02-28T07:31:55;4.10;;;2.27;;
20230;SDS011;10274;49.022;9.338;2024-02-28T07:34:22;3.47;;;2.20;;
20230;SDS011;10274;49.022;9.338;2024-02-28T07:36:49;3.20;;;2.83;;
20230;SDS011;10274;49.022;9.338;2024-02-28T07:39:16;3.17;;;2.30;;
20230;SDS011;10274;49.022;9.338;2024-02-28T07:41:42;3.30;;;2.70;;
20230;SDS011;10274;49.022;9.338;2024-02-28T07:44:09;6.17;;;3.27;;
20230;SDS011;10274;49.022;9.338;2024-02-28T07:46:36;3.60;;;2.37;;
20230;SDS011;10274;49.022;9.338;2024-02-28T07:49:04;4.10;;;3.10;;
20230;SDS011;10274;49.022;9.338;2024-02-28T07:51:31;2.70;;;2.07;;
20230;SDS011;10274;49.022;9.338;2024-02-28T07:53:57;4.67;;;3.10;;
20230;SDS011;10274;49.022;9.338;2024-02-28T07:56:24;4.50;;;2.90;;
20230;SDS011;10274;49.022;9.338;2024-02-28T07:58:51;3.23;;;2.27;;
20230;SDS011;10274;49.022;9.338;2024-02-28T08:01:17;3.30;;;2.70;;
20230;SDS011;10274;49.022;9.338;2024-02-28T08:03:44;2.50;;;2.23;;
20230;SDS011;10274;49.022;9.338;2024-02-28T08:06:12;4.13;;;2.80;;
20230;SDS011;10274;49.022;9.338;2024-02-28T08:08:39;4.00;;;3.60;;
20230;SDS011;10274;49.022;9.338;2024-02-28T08:11:05;3.87;;;2.83;;
20230;SDS011;10274;49.022;9.338;2024-02-28T08:13:32;5.37;;;3.00;;
20230;SDS011;10274;49.022;9.338;2024-02-28T08:15:59;5.20;;;3.53;;
20230;SDS011;10274;49.022;9.338;2024-02-28T08:18:25;2.80;;;2.37;;
20230;SDS011;10274;49.022;9.338;2024-02-28T08:20:53;2.97;;;2.63;;
20230;SDS011;10274;49.022;9.338;2024-02-28T08:23:23;4.13;;;2.67;;
20230;SDS011;10274;49.022;9.338;2024-02-28T08:25:51;3.43;;;2.87;;
20230;SDS011;10274;49.022;9.338;2024-02-28T08:28:18;2.83;;;2.53;;
20230;SDS011;10274;49.022;9.338;2024-02-28T08:30:45;3.43;;;2.70;;
20230;SDS011;10274;49.022;9.338;2024-02-28T08:33:11;4.00;;;2.37;;
20230;SDS011;10274;49.022;9.338;2024-02-28T08:35:38;3.37;;;2.80;;
20230;SDS011;10274;49.022;9.338;2024-02-28T08:38:05;4.83;;;3.10;;
20230;SDS011;10274;49.022;9.338;2024-02-28T08:40:33;3.20;;;2.10;;
20230;SDS011;10274;49.022;9.338;2024-02-28T08:42:59;2.20;;;2.00;;
20230;SDS011;10274;49.022;9.338;2024-02-28T08:45:26;5.67;;;2.63;;
20230;SDS011;10274;49.022;9.338;2024-02-28T08:47:53;4.07;;;2.33;;
20230;SDS011;10274;49.022;9.338;2024-02-28T08:50:19;5.13;;;3.33;;
20230;SDS011;10274;49.022;9.338;2024-02-28T08:52:46;4.03;;;3.00;;
20230;SDS011;10274;49.022;9.338;2024-02-28T08:55:13;3.10;;;2.30;;
20230;SDS011;10274;49.022;9.338;2024-02-28T08:57:44;3.57;;;2.43;;
20230;SDS011;10274;49.022;9.338;2024-02-28T09:00:12;3.57;;;2.63;;
20230;SDS011;10274;49.022;9.338;2024-02-28T09:02:40;3.40;;;2.10;;
20230;SDS011;10274;49.022;9.338;2024-02-28T09:05:07;1.80;;;1.70;;
20230;SDS011;10274;49.022;9.338;2024-02-28T09:07:34;4.53;;;2.37;;
20230;SDS011;10274;49.022;9.338;2024-02-28T09:10:01;2.53;;;2.00;;
20230;SDS011;10274;49.022;9.338;2024-02-28T09:12:30;3.67;;;1.93;;
20230;SDS011;10274;49.022;9.338;2024-02-28T09:14:58;3.50;;;2.07;;
20230;SDS011;10274;49.022;9.338;2024-02-28T09:17:24;3.43;;;2.80;;
20230;SDS011;10274;49.022;9.338;2024-02-28T09:19:52;3.90;;;3.10;;
20230;SDS011;10274;49.022;9.338;2024-02-28T09:22:19;4.60;;;2.43;;
20230;SDS011;10274;49.022;9.338;2024-02-28T09:24:46;2.80;;;2.03;;
20230;SDS011;10274;49.022;9.338;2024-02-28T09:27:13;4.57;;;3.10;;
20230;SDS011;10274;49.022;9.338;2024-02-28T09:29:40;4.07;;;2.70;;
20230;SDS011;10274;49.022;9.338;2024-02-28T09:32:08;3.53;;;2.47;;
20230;SDS011;10274;49.022;9.338;2024-02-28T09:34:35;4.47;;;1.97;;
20230;SDS011;10274;49.022;9.338;2024-02-28T09:37:03;3.07;;;2.53;;
20230;SDS011;10274;49.022;9.338;2024-02-28T09:39:30;4.10;;;2.43;;
20230;SDS011;10274;49.022;9.338;2024-02-28T09:41:56;2.40;;;1.97;;
20230;SDS011;10274;49.022;9.338;2024-02-28T09:44:23;4.00;;;2.70;;
20230;SDS011;10274;49.022;9.338;2024-02-28T09:46:51;5.07;;;2.70;;
20230;SDS011;10274;49.022;9.338;2024-02-28T09:49:19;4.90;;;2.23;;
20230;SDS011;10274;49.022;9.338;2024-02-28T09:51:48;3.30;;;2.70;;
20230;SDS011;10274;49.022;9.338;2024-02-28T09:54:15;3.80;;;2.80;;
20230;SDS011;10274;49.022;9.338;2024-02-28T09:56:42;4.70;;;2.33;;
20230;SDS011;10274;49.022;9.338;2024-02-28T09:59:09;4.23;;;3.03;;
20230;SDS011;10274;49.022;9.338;2024-02-28T10:01:37;6.03;;;2.87;;
20230;SDS011;10274;49.022;9.338;2024-02-28T10:04:09;4.37;;;2.40;;
20230;SDS011;10274;49.022;9.338;2024-02-28T10:06:39;3.00;;;2.67;;
20230;SDS011;10274;49.022;9.338;2024-02-28T10:09:06;2.60;;;2.40;;
20230;SDS011;10274;49.022;9.338;2024-02-28T10:11:33;3.57;;;2.53;;
20230;SDS011;10274;49.022;9.338;2024-02-28T10:14:00;5.03;;;3.00;;
20230;SDS011;10274;49.022;9.338;2024-02-28T10:16:27;3.67;;;2.67;;
20230;SDS011;10274;49.022;9.338;2024-02-28T10:18:55;6.37;;;3.77;;
20230;SDS011;10274;49.022;9.338;2024-02-28T10:21:21;3.90;;;2.57;;
20230;SDS011;10274;49.022;9.338;2024-02-28T10:23:50;5.23;;;2.87;;
20230;SDS011;10274;49.022;9.338;2024-02-28T10:26:16;3.03;;;2.47;;
20230;SDS011;10274;49.022;9.338;2024-02-28T10:28:43;3.90;;;2.30;;
20230;SDS011;10274;49.022;9.338;2024-02-28T10:31:10;4.37;;;2.50;;
20230;SDS011;10274;49.022;9.338;2024-02-28T10:33:37;3.07;;;2.10;;
20230;SDS011;10274;49.022;9.338;2024-02-28T10:36:04;2.93;;;2.40;;
20230;SDS011;10274;49.022;9.338;2024-02-28T10:38:31;3.10;;;2.10;;
20230;SDS011;10274;49.022;9.338;2024-02-28T10:41:00;1.90;;;1.70;;
20230;SDS011;10274;49.022;9.338;2024-02-28T10:43:27;4.40;;;2.83;;
20230;SDS011;10274;49.022;9.338;2024-02-28T10:45:55;2.77;;;1.93;;
20230;SDS011;10274;49.022;9.338;2024-02-28T10:48:24;4.57;;;2.47;;
20230;SDS011;10274;49.022;9.338;2024-02-28T10:50:50;2.13;;;1.60;;
20230;SDS011;10274;49.022;9.338;2024-02-28T10:53:19;3.17;;;1.73;;
20230;SDS011;10274;49.022;9.338;2024-02-28T10:55:49;2.30;;;2.10;;
20230;SDS011;10274;49.022;9.338;2024-02-28T10:58:18;2.97;;;2.60;;
20230;SDS011;10274;49.022;9.338;2024-02-28T11:00:48;2.53;;;2.30;;
20230;SDS011;10274;49.022;9.338;2024-02-28T11:03:16;2.17;;;1.83;;
20230;SDS011;10274;49.022;9.338;2024-02-28T11:05:44;3.93;;;1.90;;
20230;SDS011;10274;49.022;9.338;2024-02-28T11:08:11;3.07;;;1.70;;
20230;SDS011;10274;49.022;9.338;2024-02-28T11:10:47;2.87;;;2.20;;
20230;SDS011;10274;49.022;9.338;2024-02-28T11:13:22;2.47;;;1.80;;
20230;SDS011;10274;49.022;9.338;2024-02-28T11:15:49;3.20;;;2.37;;
20230;SDS011;10274;49.022;9.338;2024-02-28T11:18:16;2.10;;;1.90;;
20230;SDS011;10274;49.022;9.338;2024-02-28T11:20:43;2.53;;;1.77;;
20230;SDS011;10274;49.022;9.338;2024-02-28T11:23:11;2.67;;;2.10;;
20230;SDS011;10274;49.022;9.338;2024-02-28T11:25:39;2.13;;;1.80;;
20230;SDS011;10274;49.022;9.338;2024-02-28T11:28:06;3.03;;;1.63;;
20230;SDS011;10274;49.022;9.338;2024-02-28T11:30:34;2.87;;;2.20;;
20230;SDS011;10274;49.022;9.338;2024-02-28T11:33:01;2.63;;;2.07;;
20230;SDS011;10274;49.022;9.338;2024-02-28T11:35:28;2.53;;;1.53;;
20230;SDS011;10274;49.022;9.338;2024-02-28T11:37:54;3.13;;;2.43;;
20230;SDS011;10274;49.022;9.338;2024-02-28T11:40:22;2.40;;;1.53;;
20230;SDS011;10274;49.022;9.338;2024-02-28T11:42:50;2.70;;;1.87;;
20230;SDS011;10274;49.022;9.338;2024-02-28T11:45:16;3.17;;;1.83;;
20230;SDS011;10274;49.022;9.338;2024-02-28T11:47:45;2.30;;;1.77;;
20230;SDS011;10274;49.022;9.338;2024-02-28T11:50:12;2.07;;;1.40;;
20230;SDS011;10274;49.022;9.338;2024-02-28T11:52:40;2.60;;;1.93;;
20230;SDS011;10274;49.022;9.338;2024-02-28T11:55:07;1.23;;;1.13;;
20230;SDS011;10274;49.022;9.338;2024-02-28T11:57:34;3.50;;;2.07;;
20230;SDS011;10274;49.022;9.338;2024-02-28T12:00:03;1.70;;;1.60;;
20230;SDS011;10274;49.022;9.338;2024-02-28T12:02:31;1.60;;;1.50;;
20230;SDS011;10274;49.022;9.338;2024-02-28T12:05:01;2.43;;;1.93;;
20230;SDS011;10274;49.022;9.338;2024-02-28T12:07:29;2.27;;;1.67;;
20230;SDS011;10274;49.022;9.338;2024-02-28T12:09:56;2.33;;;2.03;;
20230;SDS011;10274;49.022;9.338;2024-02-28T12:12:23;1.50;;;1.40;;
20230;SDS011;10274;49.022;9.338;2024-02-28T12:14:50;1.83;;;1.60;;
20230;SDS011;10274;49.022;9.338;2024-02-28T12:17:17;2.73;;;1.87;;
20230;SDS011;10274;49.022;9.338;2024-02-28T12:19:44;3.53;;;1.80;;
20230;SDS011;10274;49.022;9.338;2024-02-28T12:22:12;1.60;;;1.50;;
20230;SDS011;10274;49.022;9.338;2024-02-28T12:24:39;2.17;;;1.63;;
20230;SDS011;10274;49.022;9.338;2024-02-28T12:27:05;2.13;;;1.80;;
20230;SDS011;10274;49.022;9.338;2024-02-28T12:29:32;2.53;;;1.40;;
20230;SDS011;10274;49.022;9.338;2024-02-28T12:31:59;2.23;;;1.90;;
20230;SDS011;10274;49.022;9.338;2024-02-28T12:34:25;1.60;;;1.30;;
20230;SDS011;10274;49.022;9.338;2024-02-28T12:36:52;2.47;;;1.60;;
20230;SDS011;10274;49.022;9.338;2024-02-28T12:39:21;2.50;;;1.80;;
20230;SDS011;10274;49.022;9.338;2024-02-28T12:41:47;2.77;;;2.27;;
20230;SDS011;10274;49.022;9.338;2024-02-28T12:44:14;2.73;;;1.80;;
20230;SDS011;10274;49.022;9.338;2024-02-28T12:46:41;1.53;;;1.40;;
20230;SDS011;10274;49.022;9.338;2024-02-28T12:49:07;1.97;;;1.60;;
20230;SDS011;10274;49.022;9.338;2024-02-28T12:51:35;2.33;;;1.50;;
20230;SDS011;10274;49.022;9.338;2024-02-28T12:54:03;3.17;;;2.00;;
20230;SDS011;10274;49.022;9.338;2024-02-28T12:56:32;2.17;;;1.77;;
20230;SDS011;10274;49.022;9.338;2024-02-28T12:58:59;1.60;;;1.40;;
20230;SDS011;10274;49.022;9.338;2024-02-28T13:01:26;1.93;;;1.60;;
20230;SDS011;10274;49.022;9.338;2024-02-28T13:03:53;1.90;;;1.30;;
20230;SDS011;10274;49.022;9.338;2024-02-28T13:06:20;3.17;;;1.73;;
20230;SDS011;10274;49.022;9.338;2024-02-28T13:08:46;1.67;;;1.40;;
20230;SDS011;10274;49.022;9.338;2024-02-28T13:11:16;2.07;;;1.77;;
20230;SDS011;10274;49.022;9.338;2024-02-28T13:13:45;3.50;;;1.97;;
20230;SDS011;10274;49.022;9.338;2024-02-28T13:16:12;1.30;;;1.20;;
20230;SDS011;10274;49.022;9.338;2024-02-28T13:18:39;1.30;;;1.20;;
20230;SDS011;10274;49.022;9.338;2024-02-28T13:21:06;1.63;;;1.50;;
20230;SDS011;10274;49.022;9.338;2024-02-28T13:23:33;1.67;;;1.37;;
20230;SDS011;10274;49.022;9.338;2024-02-28T13:26:00;1.43;;;1.33;;
20230;SDS011;10274;49.022;9.338;2024-02-28T13:28:26;3.13;;;2.13;;
20230;SDS011;10274;49.022;9.338;2024-02-28T13:30:56;2.30;;;1.70;;
20230;SDS011;10274;49.022;9.338;2024-02-28T13:33:23;2.17;;;1.47;;
20230;SDS011;10274;49.022;9.338;2024-02-28T13:35:50;2.07;;;1.77;;
20230;SDS011;10274;49.022;9.338;2024-02-28T13:38:18;2.23;;;1.70;;
20230;SDS011;10274;49.022;9.338;2024-02-28T13:40:45;2.17;;;1.10;;
20230;SDS011;10274;49.022;9.338;2024-02-28T13:43:12;1.63;;;1.53;;
20230;SDS011;10274;49.022;9.338;2024-02-28T13:45:39;3.00;;;1.20;;
20230;SDS011;10274;49.022;9.338;2024-02-28T13:48:15;1.40;;;1.20;;
20230;SDS011;10274;49.022;9.338;2024-02-28T13:50:43;1.83;;;1.20;;
20230;SDS011;10274;49.022;9.338;2024-02-28T13:53:10;2.27;;;1.67;;
20230;SDS011;10274;49.022;9.338;2024-02-28T13:55:37;2.13;;;1.33;;
20230;SDS011;10274;49.022;9.338;2024-02-28T13:58:04;2.50;;;1.10;;
20230;SDS011;10274;49.022;9.338;2024-02-28T14:00:31;1.87;;;1.40;;
20230;SDS011;10274;49.022;9.338;2024-02-28T14:02:59;2.33;;;1.30;;
20230;SDS011;10274;49.022;9.338;2024-02-28T14:05:28;1.23;;;1.13;;
20230;SDS011;10274;49.022;9.338;2024-02-28T14:07:54;3.13;;;1.87;;
20230;SDS011;10274;49.022;9.338;2024-02-28T14:10:22;1.47;;;1.30;;
20230;SDS011;10274;49.022;9.338;2024-02-28T14:12:48;1.93;;;1.37;;
20230;SDS011;10274;49.022;9.338;2024-02-28T14:15:17;1.70;;;0.97;;
20230;SDS011;10274;49.022;9.338;2024-02-28T14:17:44;2.40;;;1.93;;
20230;SDS011;10274;49.022;9.338;2024-02-28T14:20:11;2.57;;;1.70;;
20230;SDS011;10274;49.022;9.338;2024-02-28T14:22:40;1.63;;;1.33;;
20230;SDS011;10274;49.022;9.338;2024-02-28T14:25:09;1.73;;;1.30;;
20230;SDS011;10274;49.022;9.338;2024-02-28T14:27:38;1.87;;;1.40;;
20230;SDS011;10274;49.022;9.338;2024-02-28T14:30:05;1.80;;;1.47;;
20230;SDS011;10274;49.022;9.338;2024-02-28T14:32:33;1.50;;;1.23;;
20230;SDS011;10274;49.022;9.338;2024-02-28T14:35:00;1.47;;;1.30;;
20230;SDS011;10274;49.022;9.338;2024-02-28T14:37:27;1.90;;;1.80;;
20230;SDS011;10274;49.022;9.338;2024-02-28T14:39:55;1.40;;;0.93;;
20230;SDS011;10274;49.022;9.338;2024-02-28T14:42:22;2.73;;;1.47;;
20230;SDS011;10274;49.022;9.338;2024-02-28T14:44:49;2.60;;;1.67;;
20230;SDS011;10274;49.022;9.338;2024-02-28T14:47:18;1.97;;;1.13;;